Latest Weather Observations for Applethorpe

IDN60801

Issued at 3:33 pm EDT Friday 19 December 2014 (issued every 30 minutes, with the page automatically refreshed every 10 minutes)

About weather observations | Map of weather stations | Latest weather observations for NSW | Other Formats
Station Details ID: 041175 Name: APPLETHORPE Lat: -28.62 Lon: 151.95 Height: 871.6 m
Data from the previous 72 hours. | See also: Recent months at Applethorpe
Date/Time
EDT
Temp
°C
App
Temp
°C
Dew
Point
Rel
Hum
%
Delta-T
°C
Wind Press
QNH
hPa
Press
MSL
hPa
Rain
since 9 am
mm
Dir
 
Spd
km/h
Gust
km/h
Spd
kts
Gust
kts
19/03:30pm 27.0 23.8 10.1 34 9.8 SW 17 32 9 17 1014.1 1009.6 0.0
19/03:00pm 26.9 22.6 7.2 28 10.9 W 19 33 10 18 1014.4 1010.0 0.0
19/02:30pm 26.5 22.6 7.1 29 10.7 SW 17 30 9 16 1014.5 1010.1 0.0
19/02:00pm 26.7 24.2 9.7 34 9.8 WSW 13 22 7 12 1015.0 1010.5 0.0
19/01:30pm 25.9 22.9 9.2 34 9.5 WSW 15 28 8 15 1015.2 1010.8 0.0
19/01:00pm 25.2 22.2 9.4 36 9.0 WSW 15 28 8 15 1015.4 1011.0 0.0
19/12:30pm 25.1 23.2 10.6 40 8.4 WSW 11 24 6 13 1015.6 1011.2 0.0
19/12:00pm 23.8 21.1 10.2 42 7.8 SW 15 24 8 13 1015.8 1011.4 0.0
19/11:30am 23.3 22.7 12.3 50 6.5 WSW 7 17 4 9 1016.0 1011.5 0.0
19/11:00am 22.1 21.4 14.2 61 4.8 W 11 20 6 11 1016.3 1011.9 0.0
19/10:30am 22.1 21.6 14.8 63 4.5 WSW 11 17 6 9 1016.3 1011.9 0.0
19/10:00am 20.8 20.2 14.7 68 3.7 SW 11 24 6 13 1016.2 1011.7 7.4
19/09:30am 20.2 19.1 14.2 68 3.6 SW 13 22 7 12 1016.3 1011.9 7.4
19/09:00am 19.7 19.5 14.8 73 3.0 WSW 9 17 5 9 1016.2 1011.7 7.4
19/08:30am 18.2 17.6 14.5 79 2.2 SW 11 19 6 10 1016.2 1011.7 7.4
19/08:00am 17.3 17.2 15.0 86 1.4 SW 9 19 5 10 1016.2 1011.7 7.4
19/07:30am 16.8 17.1 15.1 90 1.0 WSW 7 13 4 7 1016.0 1011.5 7.4
19/07:00am 16.0 16.3 15.0 94 0.6 WSW 7 13 4 7 1015.7 1011.3 7.4
19/06:30am 15.4 15.7 14.4 94 0.6 WSW 6 7 3 4 1015.7 1011.3 7.4
19/06:00am 14.8 15.3 14.1 96 0.4 WSW 4 6 2 3 1015.4 1011.0 7.4
19/05:30am 15.0 16.4 14.5 97 0.3 CALM 0 0 0 0 1015.0 1010.5 7.4
19/05:00am 14.9 16.0 14.6 98 0.2 SW 2 4 1 2 1014.9 1010.4 7.2
19/04:30am 15.3 16.4 14.6 96 0.4 SW 2 4 1 2 1014.6 1010.2 7.2
19/04:00am 15.6 17.2 14.9 96 0.4 CALM 0 2 0 1 1014.8 1010.3 7.2
19/03:30am 16.0 17.7 15.3 96 0.4 CALM 0 0 0 0 1014.5 1010.1 7.2
19/03:00am 16.4 18.3 15.7 96 0.4 CALM 0 0 0 0 1014.9 1010.4 7.2
19/02:30am 16.7 17.8 15.5 93 0.7 NNE 4 6 2 3 1015.1 1010.6 7.2
19/02:00am 16.9 18.6 16.1 95 0.5 NNE 2 4 1 2 1015.3 1010.9 7.2
19/01:30am 17.1 19.2 16.3 95 0.5 CALM 0 0 0 0 1016.0 1011.5 7.2
19/01:00am 17.4 18.4 16.3 93 0.7 WSW 6 7 3 4 1016.1 1011.6 7.2
19/12:30am 18.0 18.9 16.7 92 0.8 WSW 7 13 4 7 1015.8 1011.4 6.4
19/12:00am 18.1 19.0 16.0 87 1.3 WSW 6 11 3 6 1015.3 1010.9 6.2
 
Date/Time
EDT
Temp
°C
App
Temp
°C
Dew
Point
Rel
Hum
%
Delta-T
°C
Wind Press
QNH
hPa
Press
MSL
hPa
Rain
since 9 am
mm
Dir
 
Spd
km/h
Gust
km/h
Spd
kts
Gust
kts
18/11:30pm 18.4 19.1 15.5 83 1.8 WSW 6 9 3 5 1015.5 1011.1 6.2
18/11:00pm 18.6 19.6 15.3 81 2.0 SW 4 6 2 3 1015.4 1011.0 6.2
18/10:30pm 19.0 18.8 14.7 76 2.6 WSW 9 15 5 8 1015.7 1011.3 6.2
18/10:00pm 19.3 19.8 16.6 84 1.7 W 9 17 5 9 1015.8 1011.4 6.2
18/09:30pm 19.4 19.8 16.4 83 1.9 W 9 13 5 7 1015.6 1011.2 6.2
18/09:00pm 19.2 20.8 17.0 87 1.4 WSW 4 6 2 3 1015.3 1010.9 6.2
18/08:30pm 19.3 21.0 17.2 88 1.3 WNW 4 9 2 5 1015.1 1010.6 6.2
18/08:00pm 19.6 21.5 17.6 88 1.3 NW 4 7 2 4 1014.8 1010.3 6.2
18/07:30pm 19.3 22.2 18.1 93 0.8 CALM 0 0 0 0 1014.3 1009.9 6.0
18/07:00pm 19.8 21.2 17.4 86 1.5 N 6 7 3 4 1013.8 1009.3 6.0
18/06:30pm 19.7 21.6 18.5 93 0.8 NNE 6 9 3 5 1013.6 1009.1 6.0
18/06:00pm 19.4 21.2 18.3 93 0.7 SW 6 9 3 5 1014.1 1009.6 6.0
18/05:30pm 19.5 21.3 18.7 95 0.5 WSW 7 17 4 9 1013.8 1009.3 6.0
18/05:00pm 19.2 19.4 18.6 96 0.4 SW 15 28 8 15 1013.3 1008.9 6.0
18/04:30pm 18.9 14.4 18.3 96 0.4 WSW 39 61 21 33 1012.1 1007.7 5.0
18/04:21pm 20.1 17.9 18.6 91 1.0 WNW 28 63 15 34 1012.3 1007.8 2.2
18/04:17pm 25.4 24.3 15.4 54 6.3 NW 15 59 8 32 1011.5 1007.0 0.0
18/04:00pm 28.6 28.2 13.1 38 9.5 NNW 7 19 4 10 1010.1 1005.6 0.0
18/03:30pm 28.7 28.1 12.4 36 9.9 NNW 7 17 4 9 1010.2 1005.7 0.0
18/03:00pm 29.0 27.5 11.9 34 10.3 N 11 20 6 11 1010.6 1006.1 0.0
18/02:30pm 29.8 27.3 12.2 33 10.7 N 17 26 9 14 1010.5 1006.0 0.0
18/02:00pm 30.1 28.4 12.6 34 10.7 N 13 22 7 12 1011.5 1007.0 0.0
18/01:30pm 29.9 28.4 13.0 35 10.4 NNW 13 24 7 13 1012.5 1008.0 0.0
18/01:00pm 29.4 28.3 14.2 39 9.5 N 13 24 7 13 1012.9 1008.4 0.0
18/12:30pm 28.6 27.1 14.1 41 9.0 N 15 22 8 12 1013.2 1008.8 0.0
18/12:00pm 27.5 25.4 12.4 39 9.1 NNW 15 22 8 12 1013.8 1009.3 0.0
18/11:30am 27.4 25.0 12.7 40 8.9 N 17 28 9 15 1014.0 1009.5 0.0
18/11:00am 27.0 25.8 12.8 41 8.6 NNW 11 20 6 11 1014.5 1010.1 0.0
18/10:30am 26.0 24.5 13.2 45 7.8 NNW 13 30 7 16 1014.6 1010.2 0.0
18/10:00am 26.3 25.0 12.5 42 8.3 NNW 11 28 6 15 1014.8 1010.3 0.0
18/09:30am 26.4 25.5 13.7 45 7.8 NNW 11 20 6 11 1014.6 1010.2 0.0
18/09:00am 25.1 24.4 14.4 51 6.6 N 11 20 6 11 1014.6 1010.2 0.0
18/08:30am 23.9 23.4 14.8 56 5.6 N 11 17 6 9 1015.0 1010.5 0.0
18/08:00am 22.5 23.7 15.8 66 4.2 N 4 7 2 4 1015.3 1010.9 0.0
18/07:30am 20.9 22.7 17.3 80 2.3 NE 4 7 2 4 1014.8 1010.3 0.0
18/07:00am 18.5 20.2 17.2 92 0.8 ENE 4 6 2 3 1014.3 1009.9 0.0
18/06:30am 18.0 20.1 17.2 95 0.5 NE 2 7 1 4 1014.3 1009.9 0.0
18/06:00am 18.1 19.5 17.3 95 0.5 NE 6 11 3 6 1014.2 1009.8 0.0
18/05:30am 18.2 19.0 17.2 94 0.6 NE 9 15 5 8 1013.8 1009.3 0.0
18/05:00am 18.2 19.3 17.2 94 0.6 NE 7 13 4 7 1014.0 1009.5 0.0
18/04:30am 18.4 19.2 17.3 93 0.7 ENE 9 20 5 11 1013.6 1009.1 0.0
18/04:00am 18.8 20.2 17.4 91 0.9 ENE 6 13 3 7 1014.2 1009.8 0.0
18/03:30am 19.2 20.5 17.6 90 1.0 ENE 7 13 4 7 1014.3 1009.9 0.0
18/03:00am 19.4 20.8 17.8 90 1.0 ENE 7 17 4 9 1013.7 1009.2 0.0
18/02:30am 19.5 21.3 18.3 93 0.8 E 6 11 3 6 1013.8 1009.3 0.0
18/02:00am 19.5 21.1 18.3 93 0.8 ENE 7 13 4 7 1013.6 1009.1 0.0
18/01:30am 19.4 21.2 18.2 93 0.8 E 6 13 3 7 1013.6 1009.1 0.0
18/01:00am 19.6 20.8 18.2 92 0.9 ENE 9 19 5 10 1013.5 1009.0 0.0
18/12:30am 19.8 20.6 18.1 90 1.1 E 11 22 6 12 1013.5 1009.0 0.0
18/12:00am 20.3 21.4 18.1 87 1.4 ESE 9 15 5 8 1014.2 1009.8 0.0
 
Date/Time
EDT
Temp
°C
App
Temp
°C
Dew
Point
Rel
Hum
%
Delta-T
°C
Wind Press
QNH
hPa
Press
MSL
hPa
Rain
since 9 am
mm
Dir
 
Spd
km/h
Gust
km/h
Spd
kts
Gust
kts
17/11:30pm 20.5 21.7 18.2 87 1.5 ENE 9 19 5 10 1013.8 1009.3 0.0
17/11:00pm 21.1 22.3 18.3 84 1.8 ENE 9 20 5 11 1013.8 1009.3 0.0
17/10:30pm 22.2 23.4 17.4 74 3.1 E 7 17 4 9 1012.7 1008.2 0.0
17/10:00pm 21.8 21.8 13.5 59 5.0 ENE 6 11 3 6 1012.1 1007.7 0.0
17/09:30pm 21.2 22.8 15.0 67 3.8 CALM 0 0 0 0 1011.8 1007.3 0.0
17/09:00pm 21.9 23.3 14.5 63 4.5 CALM 0 0 0 0 1011.5 1007.0 0.0
17/08:30pm 23.5 24.7 13.8 54 5.9 CALM 0 0 0 0 1011.2 1006.7 0.0
17/08:00pm 24.7 24.9 12.9 47 7.1 NE 4 9 2 5 1010.8 1006.3 0.0
17/07:30pm 26.8 27.8 13.2 43 8.3 CALM 0 0 0 0 1010.4 1005.9 0.0
17/07:00pm 30.4 29.3 8.5 25 12.6 SSW 4 7 2 4 1009.9 1005.3 0.0
17/06:30pm 31.5 29.4 5.9 20 14.2 SW 6 11 3 6 1009.5 1005.0 0.0
17/06:00pm 31.8 29.3 6.5 20 14.2 SSW 9 17 5 9 1009.1 1004.6 0.0
17/05:30pm 31.0 30.3 8.7 25 12.9 WNW 2 4 1 2 1009.1 1004.6 0.0
17/05:00pm 32.1 30.3 7.3 21 14.1 WSW 6 9 3 5 1009.1 1004.6 0.0
17/04:30pm 32.3 29.7 6.2 19 14.6 W 9 22 5 12 1009.3 1004.8 0.0
17/04:00pm 32.1 29.6 8.2 22 13.8 WSW 11 19 6 10 1009.5 1005.0 0.0
17/03:30pm 31.7 30.1 8.6 24 13.4 W 7 17 4 9 1009.9 1005.3 0.0
17/03:00pm 31.4 29.1 9.1 25 13.0 WSW 11 24 6 13 1010.2 1005.7 0.0
17/02:30pm 31.5 28.7 10.1 26 12.7 WSW 15 28 8 15 1010.5 1006.0 0.0
17/02:00pm 30.9 29.5 10.8 29 12.0 W 9 24 5 13 1010.6 1006.1 0.0
17/01:30pm 30.5 28.1 8.7 25 12.6 WSW 11 20 6 11 1010.9 1006.4 0.0
17/01:00pm 30.6 29.2 10.8 29 11.8 SW 9 19 5 10 1011.2 1006.7 0.0
17/12:30pm 30.0 28.1 10.6 30 11.5 W 11 20 6 11 1011.5 1007.0 0.0
17/12:00pm 29.3 28.1 11.7 33 10.6 W 9 20 5 11 1011.6 1007.1 0.0
17/11:30am 28.8 26.8 11.6 34 10.3 W 13 24 7 13 1011.7 1007.2 0.0
17/11:00am 28.3 26.8 12.0 36 9.8 W 11 24 6 13 1011.7 1007.2 0.0
17/10:30am 26.8 25.8 12.3 40 8.7 WSW 9 15 5 8 1011.7 1007.2 0.0
17/10:00am 27.0 26.0 12.4 40 8.8 W 9 19 5 10 1011.7 1007.2 0.0
17/09:30am 26.5 24.1 11.5 39 8.9 W 15 28 8 15 1011.7 1007.2 0.0
17/09:00am 25.9 24.4 11.8 41 8.4 W 11 20 6 11 1011.8 1007.3 0.0
17/08:30am 25.0 24.1 12.7 46 7.4 W 9 15 5 8 1012.0 1007.5 0.0
17/08:00am 23.6 23.7 12.7 50 6.5 W 4 7 2 4 1011.8 1007.3 0.0
17/07:30am 20.6 22.3 15.2 71 3.3 CALM 0 0 0 0 1011.5 1007.0 0.0
17/07:00am 17.4 18.9 14.6 83 1.7 CALM 0 0 0 0 1011.1 1006.6 0.0
17/06:30am 15.6 16.8 13.9 90 1.0 CALM 0 0 0 0 1010.6 1006.1 0.0
17/06:00am 14.6 15.7 13.6 94 0.6 CALM 0 0 0 0 1010.2 1005.7 0.0
17/05:30am 14.4 15.4 13.2 92 0.7 CALM 0 0 0 0 1009.8 1005.2 0.0
17/05:00am 15.0 16.1 13.6 91 0.8 CALM 0 0 0 0 1009.4 1004.9 0.0
17/04:30am 15.4 16.6 13.7 90 1.0 CALM 0 0 0 0 1009.2 1004.7 0.0
17/04:00am 15.6 16.8 13.9 90 1.0 CALM 0 0 0 0 1009.2 1004.7 0.0
17/03:30am 16.3 17.5 13.8 85 1.5 CALM 0 0 0 0 1009.1 1004.6 0.0
17/03:00am 16.9 18.1 13.9 82 1.8 CALM 0 0 0 0 1009.4 1004.9 0.0
17/02:30am 18.4 19.4 14.4 77 2.4 N 2 2 1 1 1009.5 1005.0 0.0
17/02:00am 19.9 20.5 13.0 64 4.1 WNW 2 2 1 1 1009.9 1005.3 0.0
17/01:30am 20.0 20.0 12.5 62 4.4 W 4 6 2 3 1010.5 1006.0 0.0
17/01:00am 19.6 20.2 13.0 65 3.9 NW 2 6 1 3 1010.8 1006.3 0.0
17/12:30am 19.9 19.8 13.2 65 4.0 WNW 6 13 3 7 1010.9 1006.4 0.0
17/12:00am 20.5 19.8 13.1 62 4.4 NW 9 22 5 12 1011.7 1007.2 0.0
 
Date/Time
EDT
Temp
°C
App
Temp
°C
Dew
Point
Rel
Hum
%
Delta-T
°C
Wind Press
QNH
hPa
Press
MSL
hPa
Rain
since 9 am
mm
Dir
 
Spd
km/h
Gust
km/h
Spd
kts
Gust
kts
16/11:30pm 21.8 19.0 11.5 52 6.0 W 17 30 9 16 1012.8 1008.3 0.0
16/11:00pm 20.9 20.4 12.2 57 5.1 W 6 9 3 5 1013.0 1008.5 0.0
16/10:30pm 20.5 20.9 13.7 65 4.1 SSW 4 7 2 4 1012.8 1008.3 0.0
16/10:00pm 21.3 20.1 12.7 58 5.1 SW 11 17 6 9 1012.5 1008.0 0.0
16/09:30pm 20.5 20.0 13.7 65 4.1 SW 9 15 5 8 1011.7 1007.2 0.0
16/09:00pm 20.6 19.7 13.6 64 4.2 SW 11 20 6 11 1012.0 1007.5 0.0
16/08:30pm 22.8 17.3 11.9 50 6.4 SW 32 54 17 29 1012.0 1007.5 0.0
16/08:26pm 23.9 20.6 10.8 43 7.6 SW 19 52 10 28 1011.4 1006.9 0.0
16/08:22pm 24.6 23.7 11.3 43 7.8 WNW 7 28 4 15 1011.1 1006.6 0.0
16/08:00pm 25.3 24.4 10.5 39 8.6 N 6 7 3 4 1008.9 1004.3 0.0
16/07:30pm 26.3 25.3 10.3 36 9.3 N 6 9 3 5 1008.7 1004.1 0.0
16/07:00pm 27.7 26.7 10.3 33 10.2 N 6 9 3 5 1008.7 1004.1 0.0
16/06:30pm 29.4 27.6 7.9 26 12.2 W 7 13 4 7 1008.4 1003.9 0.0
16/06:00pm 29.9 27.1 7.1 24 12.8 W 11 22 6 12 1008.3 1003.8 0.0
16/05:30pm 29.7 28.1 8.7 27 12.1 WNW 7 15 4 8 1008.3 1003.8 0.0
16/05:00pm 29.9 27.9 8.7 26 12.2 NW 9 17 5 9 1008.7 1004.1 0.0

Other Formats:

Comma delimited format used in spreadsheet applications
http://www.bom.gov.au/fwo/IDN60801/IDN60801.94553.axf

JavaScript Object Notation format (JSON) in row-major order
http://www.bom.gov.au/fwo/IDN60801/IDN60801.94553.json